Maersk Pearl — 9VBB6 — position and weather

sailwx.info

Track history (hours):
 
Tides and Currents Weather Stations Pressure Air Temp Water Temp Dewpoint Dewpoint Depression Visibility Wind Speed Wind Dir Waves Ship Positions

Maersk Pearl

Last reported at 2017-Sep-19 22:53 UTC. Time now 2017-Sep-20 23:48 UTC.
Position N 40°28' E 027°01'.

Length 244 m; draft 14.9 m.

Type: Tanker. MMSI: 563681000.

Date/timePositionNaut miles runAvg speedWind from/ knotsBaromVisibWave heightAir tempDewpointWater temp
2017-Sep-19 22:53N 40°28' E 027°01'116 2.7
2017-Sep-18 04:30N 41°28' E 029°12'0 0.2
2017-Sep-18 03:56N 41°28' E 029°12'0 0.1
2017-Sep-18 03:08N 41°28' E 029°12'0 0.2
2017-Sep-18 02:59N 41°28' E 029°12'0 0.3
2017-Sep-18 02:03N 41°28' E 029°12'0 0.3
2017-Sep-18 02:00N 41°28' E 029°12'0 0.1
2017-Sep-18 01:30N 41°28' E 029°12'6 2.8
2017-Sep-17 23:25N 41°27' E 029°20'511.1
2017-Sep-17 22:58N 41°29' E 029°27'2411.7
2017-Sep-17 20:57N 41°39' E 029°56'40812.0
2017-Sep-16 11:03N 43°56' E 038°40'612.4
2017-Sep-16 10:36N 43°57' E 038°47'212.8
2017-Sep-16 10:25N 43°58' E 038°50'512.5
2017-Sep-16 10:00N 43°60' E 038°57'510.0
2017-Sep-16 09:30N 44°02' E 039°03'3 5.7
2017-Sep-16 09:00N 44°05' E 039°04'0 0.5
2017-Sep-16 08:30N 44°05' E 039°04'0 0.0
2017-Sep-16 08:00N 44°05' E 039°04'0 0.0
2017-Sep-16 07:27N 44°05' E 039°04'0 0.0
2017-Sep-16 06:57N 44°05' E 039°04'0 0.0
2017-Sep-16 06:27N 44°05' E 039°04'0 0.0
2017-Sep-16 05:57N 44°05' E 039°04'0 0.0
2017-Sep-16 05:27N 44°05' E 039°04'0 0.0
2017-Sep-16 04:57N 44°05' E 039°04'0 0.0
2017-Sep-16 04:27N 44°05' E 039°04'0 0.0
2017-Sep-16 03:45N 44°05' E 039°04'0 0.0
2017-Sep-16 03:27N 44°05' E 039°04'0 0.0
2017-Sep-16 02:57N 44°05' E 039°04'0 0.0
2017-Sep-16 02:27N 44°05' E 039°04'0 0.0
2017-Sep-16 01:57N 44°05' E 039°04'0 0.0
2017-Sep-16 01:27N 44°05' E 039°04'0 0.0
2017-Sep-16 00:56N 44°05' E 039°04'0 0.0
2017-Sep-16 00:26N 44°05' E 039°04'0 0.0
2017-Sep-15 23:56N 44°05' E 039°04'0 0.0
2017-Sep-15 23:26N 44°05' E 039°04'0 0.0
2017-Sep-15 22:56N 44°05' E 039°04'0 0.0
2017-Sep-15 22:26N 44°05' E 039°04'0 0.0
2017-Sep-15 21:56N 44°05' E 039°04'0 0.0
2017-Sep-15 21:26N 44°05' E 039°04'0 0.0
2017-Sep-15 20:56N 44°05' E 039°04'0 0.0
2017-Sep-15 20:26N 44°05' E 039°04'0 0.0
2017-Sep-15 19:56N 44°05' E 039°04'0 0.0
2017-Sep-15 19:26N 44°05' E 039°04'0 0.0
2017-Sep-15 18:56N 44°05' E 039°04'0 0.0
2017-Sep-15 18:26N 44°05' E 039°04'0 0.0
2017-Sep-15 17:56N 44°05' E 039°04'0 0.0
2017-Sep-15 17:26N 44°05' E 039°04'0 0.0
2017-Sep-15 16:56N 44°05' E 039°04'0 0.0
2017-Sep-15 16:26N 44°05' E 039°04'0 0.0
2017-Sep-15 15:56N 44°05' E 039°04'0 0.0
2017-Sep-15 15:26N 44°05' E 039°04'0 0.0
2017-Sep-15 14:56N 44°05' E 039°04'0 0.0
2017-Sep-15 14:26N 44°05' E 039°04'0 0.0
2017-Sep-15 13:56N 44°05' E 039°04'0 0.0
2017-Sep-15 13:26N 44°05' E 039°04'0 0.0
2017-Sep-15 12:56N 44°05' E 039°04'0 0.0
2017-Sep-15 12:26N 44°05' E 039°04'0 0.0
2017-Sep-15 11:56N 44°05' E 039°04'0 0.0
2017-Sep-15 11:26N 44°05' E 039°04'0 0.0
2017-Sep-15 10:56N 44°05' E 039°04'0 0.0
2017-Sep-15 10:26N 44°05' E 039°04'0 0.0
2017-Sep-15 09:56N 44°05' E 039°04'0 0.0
2017-Sep-15 09:26N 44°05' E 039°04'0 0.0
2017-Sep-15 08:50N 44°05' E 039°04'0 0.0
2017-Sep-15 08:26N 44°05' E 039°04'0 0.0
2017-Sep-15 07:56N 44°05' E 039°04'0 0.0
2017-Sep-15 07:26N 44°05' E 039°04'0 0.0
2017-Sep-15 06:56N 44°05' E 039°04'0 0.0
2017-Sep-15 06:26N 44°05' E 039°04'0 0.0
2017-Sep-15 05:56N 44°05' E 039°04'0 0.0
2017-Sep-15 05:26N 44°05' E 039°04'0 0.0
2017-Sep-15 04:56N 44°05' E 039°04'0 0.0
2017-Sep-15 04:30N 44°05' E 039°04'0 0.9
2017-Sep-15 04:00N 44°05' E 039°04'2 5.0
2017-Sep-15 03:30N 44°02' E 039°04'1 3.0
2017-Sep-15 03:00N 44°02' E 039°06'0 0.2
2017-Sep-15 02:30N 44°02' E 039°06'0 0.0
2017-Sep-15 02:00N 44°02' E 039°06'0 0.0
2017-Sep-15 01:30N 44°02' E 039°06'0 0.0
2017-Sep-15 01:00N 44°02' E 039°06'0 0.0
2017-Sep-15 00:30N 44°02' E 039°06'0 0.0
2017-Sep-15 00:00N 44°02' E 039°06'0 0.0
2017-Sep-14 23:30N 44°02' E 039°06'0 0.0
2017-Sep-14 23:00N 44°02' E 039°06'0 0.0
2017-Sep-14 22:30N 44°02' E 039°06'0 0.0
2017-Sep-14 22:00N 44°02' E 039°06'0 0.0
2017-Sep-14 21:30N 44°02' E 039°06'0 0.0
2017-Sep-14 21:00N 44°02' E 039°06'0 0.0
2017-Sep-14 20:30N 44°02' E 039°06'0 0.0
2017-Sep-14 20:00N 44°02' E 039°06'0 0.1
2017-Sep-14 19:30N 44°02' E 039°06'0 0.3
2017-Sep-14 19:00N 44°01' E 039°06'0 0.2
2017-Sep-14 18:30N 44°01' E 039°06'0 0.1
2017-Sep-14 18:00N 44°01' E 039°06'0 0.0
2017-Sep-14 17:24N 44°01' E 039°06'0 0.0
2017-Sep-14 17:00N 44°01' E 039°06'0 0.1
2017-Sep-14 16:30N 44°01' E 039°06'0 0.0
2017-Sep-14 16:00N 44°01' E 039°06'0 0.0
2017-Sep-14 15:30N 44°01' E 039°06'0 0.0
2017-Sep-14 15:00N 44°01' E 039°06'0 0.1
2017-Sep-14 14:30N 44°02' E 039°06'0 0.1
2017-Sep-14 14:00N 44°02' E 039°06'0 0.0
2017-Sep-14 13:30N 44°02' E 039°06'0 0.0
2017-Sep-14 13:00N 44°02' E 039°06'0 0.0
2017-Sep-14 12:30N 44°02' E 039°06'0 0.0
2017-Sep-14 12:00N 44°02' E 039°06'0 0.0
2017-Sep-14 11:30N 44°02' E 039°06'0 0.0
2017-Sep-14 10:48N 44°02' E 039°06'0 0.0
2017-Sep-14 10:30N 44°02' E 039°06'0 0.0
2017-Sep-14 10:00N 44°02' E 039°06'0 0.0
2017-Sep-14 09:30N 44°02' E 039°06'0 0.0
2017-Sep-14 09:00N 44°02' E 039°06'0 0.0
2017-Sep-14 08:30N 44°02' E 039°06'0 0.0
2017-Sep-14 08:00N 44°02' E 039°06'0 0.0
2017-Sep-14 07:30N 44°02' E 039°06'0 0.0
2017-Sep-14 07:00N 44°02' E 039°06'0 0.0
2017-Sep-14 06:30N 44°02' E 039°06'0 0.0
2017-Sep-14 06:00N 44°02' E 039°06'0 0.0
2017-Sep-14 05:30N 44°02' E 039°06'0 0.0
2017-Sep-14 05:00N 44°02' E 039°06'0 0.0
2017-Sep-14 04:30N 44°02' E 039°06'0 0.0
2017-Sep-14 04:00N 44°02' E 039°06'0 0.0
2017-Sep-14 03:24N 44°02' E 039°06'0 0.0
2017-Sep-14 03:00N 44°02' E 039°06'0 0.0
2017-Sep-14 02:30N 44°02' E 039°06'0 0.0
2017-Sep-14 02:00N 44°02' E 039°06'0 0.0
2017-Sep-14 01:30N 44°02' E 039°06'0 0.0
2017-Sep-14 01:00N 44°02' E 039°06'0 0.0
2017-Sep-14 00:24N 44°02' E 039°06'0 0.0
2017-Sep-14 00:00N 44°02' E 039°06'0 0.0
2017-Sep-13 23:24N 44°02' E 039°06'0 0.0
2017-Sep-13 23:00N 44°02' E 039°06'0 0.0
2017-Sep-13 22:29N 44°02' E 039°06'0 0.1
2017-Sep-13 21:59N 44°02' E 039°06'0 0.0
2017-Sep-13 21:29N 44°02' E 039°06'0 0.0
2017-Sep-13 20:59N 44°02' E 039°06'0 0.0
2017-Sep-13 20:29N 44°02' E 039°06'0 0.0
2017-Sep-13 19:59N 44°02' E 039°06'0 0.1
2017-Sep-13 19:29N 44°02' E 039°06'0 0.0
2017-Sep-13 18:53N 44°02' E 039°06'0 0.1
2017-Sep-13 18:29N 44°02' E 039°06'0 0.0
2017-Sep-13 17:59N 44°02' E 039°06'0 0.0
2017-Sep-13 17:29N 44°02' E 039°06'0 0.1
2017-Sep-13 16:59N 44°02' E 039°06'0 0.1
2017-Sep-13 16:29N 44°02' E 039°06'0 0.0
2017-Sep-13 15:59N 44°02' E 039°06'0 0.0
2017-Sep-13 15:29N 44°02' E 039°06'0 0.0
2017-Sep-13 14:59N 44°02' E 039°06'0 0.0
2017-Sep-13 14:29N 44°02' E 039°06'0 0.0
2017-Sep-13 13:59N 44°02' E 039°06'0 0.0
2017-Sep-13 13:29N 44°02' E 039°06'0 0.0
2017-Sep-13 12:59N 44°02' E 039°06'0 0.0
2017-Sep-13 12:29N 44°02' E 039°06'0 0.0
2017-Sep-13 11:59N 44°02' E 039°06'0 0.0
2017-Sep-13 11:29N 44°02' E 039°06'0 0.0
2017-Sep-13 10:59N 44°02' E 039°06'0 0.0
2017-Sep-13 10:29N 44°02' E 039°06'0 0.0
2017-Sep-13 09:59N 44°02' E 039°06'0 0.0
2017-Sep-13 09:29N 44°02' E 039°06'0 0.0
2017-Sep-13 08:59N 44°02' E 039°06'0 0.0
2017-Sep-13 08:29N 44°02' E 039°06'0 0.0
2017-Sep-13 07:59N 44°02' E 039°06'0 0.0
2017-Sep-13 07:29N 44°02' E 039°06'0 0.0
2017-Sep-13 06:59N 44°02' E 039°06'0 0.0
2017-Sep-13 06:29N 44°02' E 039°06'0 0.0
2017-Sep-13 05:59N 44°02' E 039°06'0 0.0
2017-Sep-13 05:29N 44°02' E 039°06'0 0.0
2017-Sep-13 04:59N 44°02' E 039°06'0 0.0
2017-Sep-13 04:29N 44°02' E 039°06'0 0.0
2017-Sep-13 03:59N 44°02' E 039°06'0 0.0
2017-Sep-13 03:29N 44°02' E 039°06'0 0.0
2017-Sep-13 02:59N 44°02' E 039°06'0 0.0
2017-Sep-13 02:29N 44°02' E 039°06'0 0.0
2017-Sep-13 01:59N 44°02' E 039°06'0 0.0
2017-Sep-13 01:29N 44°02' E 039°06'0 0.0
2017-Sep-13 00:59N 44°02' E 039°06'0 0.1
2017-Sep-13 00:29N 44°02' E 039°06'0 0.1
2017-Sep-12 23:59N 44°02' E 039°06'0 0.0
2017-Sep-12 23:29N 44°02' E 039°06'0 0.0
2017-Sep-12 22:59N 44°02' E 039°06'0 0.0
2017-Sep-12 22:29N 44°02' E 039°06'0 0.0
2017-Sep-12 21:59N 44°02' E 039°06'0 0.0
2017-Sep-12 21:29N 44°02' E 039°06'0 0.0
2017-Sep-12 20:59N 44°02' E 039°06'0 0.0
2017-Sep-12 20:29N 44°02' E 039°06'0 0.0
2017-Sep-12 19:59N 44°02' E 039°06'0 0.0
2017-Sep-12 19:29N 44°02' E 039°06'0 0.0
2017-Sep-12 18:59N 44°02' E 039°06'0 0.0
2017-Sep-12 18:23N 44°02' E 039°06'0 0.0
2017-Sep-12 17:59N 44°02' E 039°06'0 0.0
2017-Sep-12 17:11N 44°02' E 039°06'0 0.0
2017-Sep-12 16:59N 44°02' E 039°06'0 0.0
2017-Sep-12 16:29N 44°02' E 039°06'0 0.0
2017-Sep-12 15:59N 44°02' E 039°06'0 0.0
2017-Sep-12 15:29N 44°02' E 039°06'0 0.0
2017-Sep-12 14:58N 44°02' E 039°06'0 0.0
2017-Sep-12 14:28N 44°02' E 039°06'0 0.0
2017-Sep-12 13:58N 44°02' E 039°06'0 0.0
2017-Sep-12 13:16N 44°02' E 039°06'0 0.0
2017-Sep-12 12:58N 44°02' E 039°06'0 0.0
2017-Sep-12 12:28N 44°02' E 039°06'0 0.0
2017-Sep-12 11:58N 44°02' E 039°06'0 0.0
2017-Sep-12 11:28N 44°02' E 039°06'0 0.0
2017-Sep-12 10:58N 44°02' E 039°06'0 0.0
2017-Sep-12 10:28N 44°02' E 039°06'0 0.0
2017-Sep-12 09:58N 44°02' E 039°06'0 0.0
2017-Sep-12 09:28N 44°02' E 039°06'0 0.0
2017-Sep-12 08:58N 44°02' E 039°06'0 0.0
2017-Sep-12 08:28N 44°02' E 039°06'0 0.0
2017-Sep-12 07:58N 44°02' E 039°06'0 0.0
2017-Sep-12 07:28N 44°02' E 039°06'0 0.0
2017-Sep-12 06:58N 44°02' E 039°06'0 0.0
2017-Sep-12 06:28N 44°02' E 039°06'0 0.0
2017-Sep-12 05:58N 44°02' E 039°06'0 0.0
2017-Sep-12 05:28N 44°02' E 039°06'0 0.0
2017-Sep-12 04:58N 44°02' E 039°06'0 0.0
2017-Sep-12 04:28N 44°02' E 039°06'0 0.0
2017-Sep-12 03:58N 44°02' E 039°06'0 0.0
2017-Sep-12 03:28N 44°02' E 039°06'0 0.0
2017-Sep-12 02:58N 44°02' E 039°06'0 0.0
2017-Sep-12 02:28N 44°02' E 039°06'0 0.0
2017-Sep-12 01:58N 44°02' E 039°06'0 0.0
2017-Sep-12 01:28N 44°02' E 039°06'0 0.0
2017-Sep-12 00:58N 44°02' E 039°06'0 0.0
2017-Sep-12 00:28N 44°02' E 039°06'0 0.0
2017-Sep-11 23:58N 44°02' E 039°06'0 0.0
2017-Sep-11 23:28N 44°02' E 039°06'0 0.0
2017-Sep-11 22:58N 44°02' E 039°06'0 0.0
2017-Sep-11 22:28N 44°02' E 039°06'0 0.0
2017-Sep-11 21:58N 44°02' E 039°06'0 0.0
2017-Sep-11 21:28N 44°02' E 039°06'0 0.0
2017-Sep-11 20:58N 44°02' E 039°06'0 0.0
2017-Sep-11 20:28N 44°02' E 039°06'0 0.0
2017-Sep-11 19:58N 44°02' E 039°06'0 0.0
2017-Sep-11 19:28N 44°02' E 039°06'0 0.0
2017-Sep-11 18:58N 44°02' E 039°06'0 0.0
2017-Sep-11 18:28N 44°02' E 039°06'0 0.0
2017-Sep-11 17:58N 44°02' E 039°06'0 0.0
2017-Sep-11 17:28N 44°02' E 039°06'0 0.0
2017-Sep-11 16:52N 44°02' E 039°06'0 0.0
2017-Sep-11 16:28N 44°02' E 039°06'0 0.0
2017-Sep-11 15:58N 44°02' E 039°06'0 0.0
2017-Sep-11 15:28N 44°02' E 039°06'0 0.0
2017-Sep-11 14:58N 44°02' E 039°06'0 0.0
2017-Sep-11 14:28N 44°02' E 039°06'0 0.0
2017-Sep-11 13:58N 44°02' E 039°06'0 0.0
2017-Sep-11 13:16N 44°02' E 039°06'0 0.0
2017-Sep-11 12:58N 44°02' E 039°06'0 0.0
2017-Sep-11 12:28N 44°02' E 039°06'0 0.0
2017-Sep-11 11:58N 44°02' E 039°06'0 0.0
2017-Sep-11 11:04N 44°02' E 039°06'0 0.0
2017-Sep-11 10:46N 44°02' E 039°06'0 0.0
2017-Sep-11 10:22N 44°02' E 039°06'0 0.0
2017-Sep-11 09:58N 44°02' E 039°06'0 0.0
2017-Sep-11 08:16N 44°02' E 039°06'0 0.2
2017-Sep-11 07:58N 44°02' E 039°06'1 1.5
2017-Sep-11 07:30N 44°02' E 039°05'3 5.5
2017-Sep-11 07:00N 44°04' E 039°04'1 1.1
2017-Sep-11 06:27N 44°05' E 039°04'0 0.0
2017-Sep-11 05:57N 44°05' E 039°04'0 0.0
2017-Sep-11 05:27N 44°05' E 039°04'0 0.0
2017-Sep-11 04:57N 44°05' E 039°04'0 0.0
2017-Sep-11 04:27N 44°05' E 039°04'0 0.0
2017-Sep-11 03:57N 44°05' E 039°04'0 0.0
2017-Sep-11 03:27N 44°05' E 039°04'0 0.0
2017-Sep-11 02:57N 44°05' E 039°04'0 0.0
2017-Sep-11 02:27N 44°05' E 039°04'0 0.0
2017-Sep-11 01:57N 44°05' E 039°04'0 0.0
2017-Sep-11 01:27N 44°05' E 039°04'0 0.0
2017-Sep-11 00:57N 44°05' E 039°04'0 0.0
2017-Sep-11 00:27N 44°05' E 039°04'0 0.0
2017-Sep-10 23:57N 44°05' E 039°04'0 0.0
2017-Sep-10 23:27N 44°05' E 039°04'0 0.0
2017-Sep-10 22:57N 44°05' E 039°04'0 0.0
2017-Sep-10 22:27N 44°05' E 039°04'0 0.0
2017-Sep-10 21:57N 44°05' E 039°04'0 0.0
2017-Sep-10 21:27N 44°05' E 039°04'0 0.0
2017-Sep-10 20:57N 44°05' E 039°04'0 0.0
2017-Sep-10 20:27N 44°05' E 039°04'0 0.0
2017-Sep-10 19:56N 44°05' E 039°04'0 0.0
2017-Sep-10 19:26N 44°05' E 039°04'0 0.0
2017-Sep-10 18:56N 44°05' E 039°04'0 0.0
2017-Sep-10 18:26N 44°05' E 039°04'0 0.0
2017-Sep-10 17:56N 44°05' E 039°04'0 0.0
2017-Sep-10 17:26N 44°05' E 039°04'0 0.0
2017-Sep-10 16:56N 44°05' E 039°04'0 0.0
2017-Sep-10 16:14N 44°05' E 039°04'0 0.0
2017-Sep-10 15:56N 44°05' E 039°04'0 0.0
2017-Sep-10 15:26N 44°05' E 039°04'0 0.0
2017-Sep-10 14:56N 44°05' E 039°04'0 0.0
2017-Sep-10 13:56N 44°05' E 039°04'0 0.0
2017-Sep-10 13:26N 44°05' E 039°04'0 0.0
2017-Sep-10 12:56N 44°05' E 039°04'0 0.0
2017-Sep-10 12:26N 44°05' E 039°04'0 0.0
2017-Sep-10 11:56N 44°05' E 039°04'0 0.0
2017-Sep-10 11:26N 44°05' E 039°04'0 0.0
2017-Sep-10 10:56N 44°05' E 039°04'0 0.0
2017-Sep-10 10:26N 44°05' E 039°04'0 0.0
2017-Sep-10 09:56N 44°05' E 039°04'0 0.0
2017-Sep-10 09:26N 44°05' E 039°04'0 0.0
2017-Sep-10 08:56N 44°05' E 039°04'0 0.0
2017-Sep-10 08:26N 44°05' E 039°04'0 0.0
2017-Sep-10 07:56N 44°05' E 039°04'0 0.0
2017-Sep-10 07:26N 44°05' E 039°04'0 0.0
2017-Sep-10 06:56N 44°05' E 039°04'0 0.1
2017-Sep-10 06:30N 44°05' E 039°04'0 0.7
2017-Sep-10 06:00N 44°05' E 039°04'2 4.0
2017-Sep-10 05:30N 44°03' E 039°03'1 1.8
2017-Sep-10 05:00N 44°02' E 039°03'0 0.6
2017-Sep-10 04:30N 44°02' E 039°02'1 1.2
2017-Sep-10 04:00N 44°02' E 039°03'2 3.6
2017-Sep-10 03:28N 44°02' E 039°06'0 0.2
2017-Sep-10 02:58N 44°02' E 039°06'0 0.0
2017-Sep-10 02:28N 44°02' E 039°06'0 0.0
2017-Sep-10 01:58N 44°02' E 039°06'0 0.0
2017-Sep-10 01:22N 44°02' E 039°06'0 0.0
2017-Sep-10 00:58N 44°02' E 039°06'0 0.0
2017-Sep-10 00:28N 44°02' E 039°06'0 0.0
2017-Sep-09 23:58N 44°02' E 039°06'0 0.0
2017-Sep-09 23:28N 44°02' E 039°06'0 0.0
2017-Sep-09 22:58N 44°02' E 039°06'  
Track history (hours):
 
Tides and Currents Weather Stations Pressure Air Temp Water Temp Dewpoint Dewpoint Depression Visibility Wind Speed Wind Dir Waves Ship Positions

Maersk Pearl

Last reported at 2017-Sep-19 22:53 UTC. Time now 2017-Sep-20 23:48 UTC.
Position N 40°28' E 027°01'.

Length 244 m; draft 14.9 m.

Type: Tanker. MMSI: 563681000.

Date/timePositionNaut miles runAvg speedWind from/ knotsBaromVisibWave heightAir tempDewpointWater temp
2017-Sep-19 22:53N 40°28' E 027°01'116 2.7
2017-Sep-18 04:30N 41°28' E 029°12'0 0.2
2017-Sep-18 03:56N 41°28' E 029°12'0 0.1
2017-Sep-18 03:08N 41°28' E 029°12'0 0.2
2017-Sep-18 02:59N 41°28' E 029°12'0 0.3
2017-Sep-18 02:03N 41°28' E 029°12'0 0.3
2017-Sep-18 02:00N 41°28' E 029°12'0 0.1
2017-Sep-18 01:30N 41°28' E 029°12'6 2.8
2017-Sep-17 23:25N 41°27' E 029°20'511.1
2017-Sep-17 22:58N 41°29' E 029°27'2411.7
2017-Sep-17 20:57N 41°39' E 029°56'40812.0
2017-Sep-16 11:03N 43°56' E 038°40'612.4
2017-Sep-16 10:36N 43°57' E 038°47'212.8
2017-Sep-16 10:25N 43°58' E 038°50'512.5
2017-Sep-16 10:00N 43°60' E 038°57'510.0
2017-Sep-16 09:30N 44°02' E 039°03'3 5.7
2017-Sep-16 09:00N 44°05' E 039°04'0 0.5
2017-Sep-16 08:30N 44°05' E 039°04'0 0.0
2017-Sep-16 08:00N 44°05' E 039°04'0 0.0
2017-Sep-16 07:27N 44°05' E 039°04'0 0.0
2017-Sep-16 06:57N 44°05' E 039°04'0 0.0
2017-Sep-16 06:27N 44°05' E 039°04'0 0.0
2017-Sep-16 05:57N 44°05' E 039°04'0 0.0
2017-Sep-16 05:27N 44°05' E 039°04'0 0.0
2017-Sep-16 04:57N 44°05' E 039°04'0 0.0
2017-Sep-16 04:27N 44°05' E 039°04'0 0.0
2017-Sep-16 03:45N 44°05' E 039°04'0 0.0
2017-Sep-16 03:27N 44°05' E 039°04'0 0.0
2017-Sep-16 02:57N 44°05' E 039°04'0 0.0
2017-Sep-16 02:27N 44°05' E 039°04'0 0.0
2017-Sep-16 01:57N 44°05' E 039°04'0 0.0
2017-Sep-16 01:27N 44°05' E 039°04'0 0.0
2017-Sep-16 00:56N 44°05' E 039°04'0 0.0
2017-Sep-16 00:26N 44°05' E 039°04'0 0.0
2017-Sep-15 23:56N 44°05' E 039°04'0 0.0
2017-Sep-15 23:26N 44°05' E 039°04'0 0.0
2017-Sep-15 22:56N 44°05' E 039°04'0 0.0
2017-Sep-15 22:26N 44°05' E 039°04'0 0.0
2017-Sep-15 21:56N 44°05' E 039°04'0 0.0
2017-Sep-15 21:26N 44°05' E 039°04'0 0.0
2017-Sep-15 20:56N 44°05' E 039°04'0 0.0
2017-Sep-15 20:26N 44°05' E 039°04'0 0.0
2017-Sep-15 19:56N 44°05' E 039°04'0 0.0
2017-Sep-15 19:26N 44°05' E 039°04'0 0.0
2017-Sep-15 18:56N 44°05' E 039°04'0 0.0
2017-Sep-15 18:26N 44°05' E 039°04'0 0.0
2017-Sep-15 17:56N 44°05' E 039°04'0 0.0
2017-Sep-15 17:26N 44°05' E 039°04'0 0.0
2017-Sep-15 16:56N 44°05' E 039°04'0 0.0
2017-Sep-15 16:26N 44°05' E 039°04'0 0.0
2017-Sep-15 15:56N 44°05' E 039°04'0 0.0
2017-Sep-15 15:26N 44°05' E 039°04'0 0.0
2017-Sep-15 14:56N 44°05' E 039°04'0 0.0
2017-Sep-15 14:26N 44°05' E 039°04'0 0.0
2017-Sep-15 13:56N 44°05' E 039°04'0 0.0
2017-Sep-15 13:26N 44°05' E 039°04'0 0.0
2017-Sep-15 12:56N 44°05' E 039°04'0 0.0
2017-Sep-15 12:26N 44°05' E 039°04'0 0.0
2017-Sep-15 11:56N 44°05' E 039°04'0 0.0
2017-Sep-15 11:26N 44°05' E 039°04'0 0.0
2017-Sep-15 10:56N 44°05' E 039°04'0 0.0
2017-Sep-15 10:26N 44°05' E 039°04'0 0.0
2017-Sep-15 09:56N 44°05' E 039°04'0 0.0
2017-Sep-15 09:26N 44°05' E 039°04'0 0.0
2017-Sep-15 08:50N 44°05' E 039°04'0 0.0
2017-Sep-15 08:26N 44°05' E 039°04'0 0.0
2017-Sep-15 07:56N 44°05' E 039°04'0 0.0
2017-Sep-15 07:26N 44°05' E 039°04'0 0.0
2017-Sep-15 06:56N 44°05' E 039°04'0 0.0
2017-Sep-15 06:26N 44°05' E 039°04'0 0.0
2017-Sep-15 05:56N 44°05' E 039°04'0 0.0
2017-Sep-15 05:26N 44°05' E 039°04'0 0.0
2017-Sep-15 04:56N 44°05' E 039°04'0 0.0
2017-Sep-15 04:30N 44°05' E 039°04'0 0.9
2017-Sep-15 04:00N 44°05' E 039°04'2 5.0
2017-Sep-15 03:30N 44°02' E 039°04'1 3.0
2017-Sep-15 03:00N 44°02' E 039°06'0 0.2
2017-Sep-15 02:30N 44°02' E 039°06'0 0.0
2017-Sep-15 02:00N 44°02' E 039°06'0 0.0
2017-Sep-15 01:30N 44°02' E 039°06'0 0.0
2017-Sep-15 01:00N 44°02' E 039°06'0 0.0
2017-Sep-15 00:30N 44°02' E 039°06'0 0.0
2017-Sep-15 00:00N 44°02' E 039°06'0 0.0
2017-Sep-14 23:30N 44°02' E 039°06'0 0.0
2017-Sep-14 23:00N 44°02' E 039°06'0 0.0
2017-Sep-14 22:30N 44°02' E 039°06'0 0.0
2017-Sep-14 22:00N 44°02' E 039°06'0 0.0
2017-Sep-14 21:30N 44°02' E 039°06'0 0.0
2017-Sep-14 21:00N 44°02' E 039°06'0 0.0
2017-Sep-14 20:30N 44°02' E 039°06'0 0.0
2017-Sep-14 20:00N 44°02' E 039°06'0 0.1
2017-Sep-14 19:30N 44°02' E 039°06'0 0.3
2017-Sep-14 19:00N 44°01' E 039°06'0 0.2
2017-Sep-14 18:30N 44°01' E 039°06'0 0.1
2017-Sep-14 18:00N 44°01' E 039°06'0 0.0
2017-Sep-14 17:24N 44°01' E 039°06'0 0.0
2017-Sep-14 17:00N 44°01' E 039°06'0 0.1
2017-Sep-14 16:30N 44°01' E 039°06'0 0.0
2017-Sep-14 16:00N 44°01' E 039°06'0 0.0
2017-Sep-14 15:30N 44°01' E 039°06'0 0.0
2017-Sep-14 15:00N 44°01' E 039°06'0 0.1
2017-Sep-14 14:30N 44°02' E 039°06'0 0.1
2017-Sep-14 14:00N 44°02' E 039°06'0 0.0
2017-Sep-14 13:30N 44°02' E 039°06'0 0.0
2017-Sep-14 13:00N 44°02' E 039°06'0 0.0
2017-Sep-14 12:30N 44°02' E 039°06'0 0.0
2017-Sep-14 12:00N 44°02' E 039°06'0 0.0
2017-Sep-14 11:30N 44°02' E 039°06'0 0.0
2017-Sep-14 10:48N 44°02' E 039°06'0 0.0
2017-Sep-14 10:30N 44°02' E 039°06'0 0.0
2017-Sep-14 10:00N 44°02' E 039°06'0 0.0
2017-Sep-14 09:30N 44°02' E 039°06'0 0.0
2017-Sep-14 09:00N 44°02' E 039°06'0 0.0
2017-Sep-14 08:30N 44°02' E 039°06'0 0.0
2017-Sep-14 08:00N 44°02' E 039°06'0 0.0
2017-Sep-14 07:30N 44°02' E 039°06'0 0.0
2017-Sep-14 07:00N 44°02' E 039°06'0 0.0
2017-Sep-14 06:30N 44°02' E 039°06'0 0.0
2017-Sep-14 06:00N 44°02' E 039°06'0 0.0
2017-Sep-14 05:30N 44°02' E 039°06'0 0.0
2017-Sep-14 05:00N 44°02' E 039°06'0 0.0
2017-Sep-14 04:30N 44°02' E 039°06'0 0.0
2017-Sep-14 04:00N 44°02' E 039°06'0 0.0
2017-Sep-14 03:24N 44°02' E 039°06'0 0.0
2017-Sep-14 03:00N 44°02' E 039°06'0 0.0
2017-Sep-14 02:30N 44°02' E 039°06'0 0.0
2017-Sep-14 02:00N 44°02' E 039°06'0 0.0
2017-Sep-14 01:30N 44°02' E 039°06'0 0.0
2017-Sep-14 01:00N 44°02' E 039°06'0 0.0
2017-Sep-14 00:24N 44°02' E 039°06'0 0.0
2017-Sep-14 00:00N 44°02' E 039°06'0 0.0
2017-Sep-13 23:24N 44°02' E 039°06'0 0.0
2017-Sep-13 23:00N 44°02' E 039°06'0 0.0
2017-Sep-13 22:29N 44°02' E 039°06'0 0.1
2017-Sep-13 21:59N 44°02' E 039°06'0 0.0
2017-Sep-13 21:29N 44°02' E 039°06'0 0.0
2017-Sep-13 20:59N 44°02' E 039°06'0 0.0
2017-Sep-13 20:29N 44°02' E 039°06'0 0.0
2017-Sep-13 19:59N 44°02' E 039°06'0 0.1
2017-Sep-13 19:29N 44°02' E 039°06'0 0.0
2017-Sep-13 18:53N 44°02' E 039°06'0 0.1
2017-Sep-13 18:29N 44°02' E 039°06'0 0.0
2017-Sep-13 17:59N 44°02' E 039°06'0 0.0
2017-Sep-13 17:29N 44°02' E 039°06'0 0.1
2017-Sep-13 16:59N 44°02' E 039°06'0 0.1
2017-Sep-13 16:29N 44°02' E 039°06'0 0.0
2017-Sep-13 15:59N 44°02' E 039°06'0 0.0
2017-Sep-13 15:29N 44°02' E 039°06'0 0.0
2017-Sep-13 14:59N 44°02' E 039°06'0 0.0
2017-Sep-13 14:29N 44°02' E 039°06'0 0.0
2017-Sep-13 13:59N 44°02' E 039°06'0 0.0
2017-Sep-13 13:29N 44°02' E 039°06'0 0.0
2017-Sep-13 12:59N 44°02' E 039°06'0 0.0
2017-Sep-13 12:29N 44°02' E 039°06'0 0.0
2017-Sep-13 11:59N 44°02' E 039°06'0 0.0
2017-Sep-13 11:29N 44°02' E 039°06'0 0.0
2017-Sep-13 10:59N 44°02' E 039°06'0 0.0
2017-Sep-13 10:29N 44°02' E 039°06'0 0.0
2017-Sep-13 09:59N 44°02' E 039°06'0 0.0
2017-Sep-13 09:29N 44°02' E 039°06'0 0.0
2017-Sep-13 08:59N 44°02' E 039°06'0 0.0
2017-Sep-13 08:29N 44°02' E 039°06'0 0.0
2017-Sep-13 07:59N 44°02' E 039°06'0 0.0
2017-Sep-13 07:29N 44°02' E 039°06'0 0.0
2017-Sep-13 06:59N 44°02' E 039°06'0 0.0
2017-Sep-13 06:29N 44°02' E 039°06'0 0.0
2017-Sep-13 05:59N 44°02' E 039°06'0 0.0
2017-Sep-13 05:29N 44°02' E 039°06'0 0.0
2017-Sep-13 04:59N 44°02' E 039°06'0 0.0
2017-Sep-13 04:29N 44°02' E 039°06'0 0.0
2017-Sep-13 03:59N 44°02' E 039°06'0 0.0
2017-Sep-13 03:29N 44°02' E 039°06'0 0.0
2017-Sep-13 02:59N 44°02' E 039°06'0 0.0
2017-Sep-13 02:29N 44°02' E 039°06'0 0.0
2017-Sep-13 01:59N 44°02' E 039°06'0 0.0
2017-Sep-13 01:29N 44°02' E 039°06'0 0.0
2017-Sep-13 00:59N 44°02' E 039°06'0 0.1
2017-Sep-13 00:29N 44°02' E 039°06'0 0.1
2017-Sep-12 23:59N 44°02' E 039°06'0 0.0
2017-Sep-12 23:29N 44°02' E 039°06'0 0.0
2017-Sep-12 22:59N 44°02' E 039°06'0 0.0
2017-Sep-12 22:29N 44°02' E 039°06'0 0.0
2017-Sep-12 21:59N 44°02' E 039°06'0 0.0
2017-Sep-12 21:29N 44°02' E 039°06'0 0.0
2017-Sep-12 20:59N 44°02' E 039°06'0 0.0
2017-Sep-12 20:29N 44°02' E 039°06'0 0.0
2017-Sep-12 19:59N 44°02' E 039°06'0 0.0
2017-Sep-12 19:29N 44°02' E 039°06'0 0.0
2017-Sep-12 18:59N 44°02' E 039°06'0 0.0
2017-Sep-12 18:23N 44°02' E 039°06'0 0.0
2017-Sep-12 17:59N 44°02' E 039°06'0 0.0
2017-Sep-12 17:11N 44°02' E 039°06'0 0.0
2017-Sep-12 16:59N 44°02' E 039°06'0 0.0
2017-Sep-12 16:29N 44°02' E 039°06'0 0.0
2017-Sep-12 15:59N 44°02' E 039°06'0 0.0
2017-Sep-12 15:29N 44°02' E 039°06'0 0.0
2017-Sep-12 14:58N 44°02' E 039°06'0 0.0
2017-Sep-12 14:28N 44°02' E 039°06'0 0.0
2017-Sep-12 13:58N 44°02' E 039°06'0 0.0
2017-Sep-12 13:16N 44°02' E 039°06'0 0.0
2017-Sep-12 12:58N 44°02' E 039°06'0 0.0
2017-Sep-12 12:28N 44°02' E 039°06'0 0.0
2017-Sep-12 11:58N 44°02' E 039°06'0 0.0
2017-Sep-12 11:28N 44°02' E 039°06'0 0.0
2017-Sep-12 10:58N 44°02' E 039°06'0 0.0
2017-Sep-12 10:28N 44°02' E 039°06'0 0.0
2017-Sep-12 09:58N 44°02' E 039°06'0 0.0
2017-Sep-12 09:28N 44°02' E 039°06'0 0.0
2017-Sep-12 08:58N 44°02' E 039°06'0 0.0
2017-Sep-12 08:28N 44°02' E 039°06'0 0.0
2017-Sep-12 07:58N 44°02' E 039°06'0 0.0
2017-Sep-12 07:28N 44°02' E 039°06'0 0.0
2017-Sep-12 06:58N 44°02' E 039°06'0 0.0
2017-Sep-12 06:28N 44°02' E 039°06'0 0.0
2017-Sep-12 05:58N 44°02' E 039°06'0 0.0
2017-Sep-12 05:28N 44°02' E 039°06'0 0.0
2017-Sep-12 04:58N 44°02' E 039°06'0 0.0
2017-Sep-12 04:28N 44°02' E 039°06'0 0.0
2017-Sep-12 03:58N 44°02' E 039°06'0 0.0
2017-Sep-12 03:28N 44°02' E 039°06'0 0.0
2017-Sep-12 02:58N 44°02' E 039°06'0 0.0
2017-Sep-12 02:28N 44°02' E 039°06'0 0.0
2017-Sep-12 01:58N 44°02' E 039°06'0 0.0
2017-Sep-12 01:28N 44°02' E 039°06'0 0.0
2017-Sep-12 00:58N 44°02' E 039°06'0 0.0
2017-Sep-12 00:28N 44°02' E 039°06'0 0.0
2017-Sep-11 23:58N 44°02' E 039°06'0 0.0
2017-Sep-11 23:28N 44°02' E 039°06'0 0.0
2017-Sep-11 22:58N 44°02' E 039°06'0 0.0
2017-Sep-11 22:28N 44°02' E 039°06'0 0.0
2017-Sep-11 21:58N 44°02' E 039°06'0 0.0
2017-Sep-11 21:28N 44°02' E 039°06'0 0.0
2017-Sep-11 20:58N 44°02' E 039°06'0 0.0
2017-Sep-11 20:28N 44°02' E 039°06'0 0.0
2017-Sep-11 19:58N 44°02' E 039°06'0 0.0
2017-Sep-11 19:28N 44°02' E 039°06'0 0.0
2017-Sep-11 18:58N 44°02' E 039°06'0 0.0
2017-Sep-11 18:28N 44°02' E 039°06'0 0.0
2017-Sep-11 17:58N 44°02' E 039°06'0 0.0
2017-Sep-11 17:28N 44°02' E 039°06'0 0.0
2017-Sep-11 16:52N 44°02' E 039°06'0 0.0
2017-Sep-11 16:28N 44°02' E 039°06'0 0.0
2017-Sep-11 15:58N 44°02' E 039°06'0 0.0
2017-Sep-11 15:28N 44°02' E 039°06'0 0.0
2017-Sep-11 14:58N 44°02' E 039°06'0 0.0
2017-Sep-11 14:28N 44°02' E 039°06'0 0.0
2017-Sep-11 13:58N 44°02' E 039°06'0 0.0
2017-Sep-11 13:16N 44°02' E 039°06'0 0.0
2017-Sep-11 12:58N 44°02' E 039°06'0 0.0
2017-Sep-11 12:28N 44°02' E 039°06'0 0.0
2017-Sep-11 11:58N 44°02' E 039°06'0 0.0
2017-Sep-11 11:04N 44°02' E 039°06'0 0.0
2017-Sep-11 10:46N 44°02' E 039°06'0 0.0
2017-Sep-11 10:22N 44°02' E 039°06'0 0.0
2017-Sep-11 09:58N 44°02' E 039°06'0 0.0
2017-Sep-11 08:16N 44°02' E 039°06'0 0.2
2017-Sep-11 07:58N 44°02' E 039°06'1 1.5
2017-Sep-11 07:30N 44°02' E 039°05'3 5.5
2017-Sep-11 07:00N 44°04' E 039°04'1 1.1
2017-Sep-11 06:27N 44°05' E 039°04'0 0.0
2017-Sep-11 05:57N 44°05' E 039°04'0 0.0
2017-Sep-11 05:27N 44°05' E 039°04'0 0.0
2017-Sep-11 04:57N 44°05' E 039°04'0 0.0
2017-Sep-11 04:27N 44°05' E 039°04'0 0.0
2017-Sep-11 03:57N 44°05' E 039°04'0 0.0
2017-Sep-11 03:27N 44°05' E 039°04'0 0.0
2017-Sep-11 02:57N 44°05' E 039°04'0 0.0
2017-Sep-11 02:27N 44°05' E 039°04'0 0.0
2017-Sep-11 01:57N 44°05' E 039°04'0 0.0
2017-Sep-11 01:27N 44°05' E 039°04'0 0.0
2017-Sep-11 00:57N 44°05' E 039°04'0 0.0
2017-Sep-11 00:27N 44°05' E 039°04'0 0.0
2017-Sep-10 23:57N 44°05' E 039°04'0 0.0
2017-Sep-10 23:27N 44°05' E 039°04'0 0.0
2017-Sep-10 22:57N 44°05' E 039°04'0 0.0
2017-Sep-10 22:27N 44°05' E 039°04'0 0.0
2017-Sep-10 21:57N 44°05' E 039°04'0 0.0
2017-Sep-10 21:27N 44°05' E 039°04'0 0.0
2017-Sep-10 20:57N 44°05' E 039°04'0 0.0
2017-Sep-10 20:27N 44°05' E 039°04'0 0.0
2017-Sep-10 19:56N 44°05' E 039°04'0 0.0
2017-Sep-10 19:26N 44°05' E 039°04'0 0.0
2017-Sep-10 18:56N 44°05' E 039°04'0 0.0
2017-Sep-10 18:26N 44°05' E 039°04'0 0.0
2017-Sep-10 17:56N 44°05' E 039°04'0 0.0
2017-Sep-10 17:26N 44°05' E 039°04'0 0.0
2017-Sep-10 16:56N 44°05' E 039°04'0 0.0
2017-Sep-10 16:14N 44°05' E 039°04'0 0.0
2017-Sep-10 15:56N 44°05' E 039°04'0 0.0
2017-Sep-10 15:26N 44°05' E 039°04'0 0.0
2017-Sep-10 14:56N 44°05' E 039°04'0 0.0
2017-Sep-10 13:56N 44°05' E 039°04'0 0.0
2017-Sep-10 13:26N 44°05' E 039°04'0 0.0
2017-Sep-10 12:56N 44°05' E 039°04'0 0.0
2017-Sep-10 12:26N 44°05' E 039°04'0 0.0
2017-Sep-10 11:56N 44°05' E 039°04'0 0.0
2017-Sep-10 11:26N 44°05' E 039°04'0 0.0
2017-Sep-10 10:56N 44°05' E 039°04'0 0.0
2017-Sep-10 10:26N 44°05' E 039°04'0 0.0
2017-Sep-10 09:56N 44°05' E 039°04'0 0.0
2017-Sep-10 09:26N 44°05' E 039°04'0 0.0
2017-Sep-10 08:56N 44°05' E 039°04'0 0.0
2017-Sep-10 08:26N 44°05' E 039°04'0 0.0
2017-Sep-10 07:56N 44°05' E 039°04'0 0.0
2017-Sep-10 07:26N 44°05' E 039°04'0 0.0
2017-Sep-10 06:56N 44°05' E 039°04'0 0.1
2017-Sep-10 06:30N 44°05' E 039°04'0 0.7
2017-Sep-10 06:00N 44°05' E 039°04'2 4.0
2017-Sep-10 05:30N 44°03' E 039°03'1 1.8
2017-Sep-10 05:00N 44°02' E 039°03'0 0.6
2017-Sep-10 04:30N 44°02' E 039°02'1 1.2
2017-Sep-10 04:00N 44°02' E 039°03'2 3.6
2017-Sep-10 03:28N 44°02' E 039°06'0 0.2
2017-Sep-10 02:58N 44°02' E 039°06'0 0.0
2017-Sep-10 02:28N 44°02' E 039°06'0 0.0
2017-Sep-10 01:58N 44°02' E 039°06'0 0.0
2017-Sep-10 01:22N 44°02' E 039°06'0 0.0
2017-Sep-10 00:58N 44°02' E 039°06'0 0.0
2017-Sep-10 00:28N 44°02' E 039°06'0 0.0
2017-Sep-09 23:58N 44°02' E 039°06'0 0.0
2017-Sep-09 23:28N 44°02' E 039°06'0 0.0
2017-Sep-09 22:58N 44°02' E 039°06'  

Dump ship's entire track history